Time;durP1;ratioP1;P1;durP2;ratioP2;P2;SDS_P1;SDS_P2;PMS_P1;PMS_P2;Temp;Humidity;BMP_temperature;BMP_pressure;BME280_temperature;BME280_humidity;BME280_pressure;Samples;Min_cycle;Max_cycle;Signal;HPM_P1;HPM_P2
2022/07/29 00:01:08;;;;;;;5.97;3.30;;;;;;;18.42;80.41;94768.56;4999051;28;20951;-73
2022/07/29 00:03:35;;;;;;;7.50;3.70;;;;;;;18.50;79.92;94768.66;5003486;28;20202;-74
2022/07/29 00:06:02;;;;;;;7.15;4.22;;;;;;;18.51;79.65;94770.22;5004437;28;20251;-73
2022/07/29 00:08:29;;;;;;;6.22;3.80;;;;;;;18.51;79.57;94778.47;4998218;28;20205;-72
2022/07/29 00:10:56;;;;;;;5.35;3.40;;;;;;;18.47;79.70;94787.44;4999033;28;20205;-73
2022/07/29 00:13:24;;;;;;;6.68;3.90;;;;;;;18.52;80.07;94782.78;5004463;28;20291;-72
2022/07/29 00:15:51;;;;;;;9.85;3.70;;;;;;;18.60;79.85;94784.47;5004476;28;20259;-72
2022/07/29 00:18:18;;;;;;;5.75;3.97;;;;;;;18.58;79.37;94786.78;5010633;28;20275;-73
2022/07/29 00:20:44;;;;;;;5.63;3.97;;;;;;;18.60;79.77;94795.44;5010811;28;20209;-73
2022/07/29 00:23:11;;;;;;;9.57;3.70;;;;;;;18.56;81.21;94794.59;5004586;28;20263;-73
2022/07/29 00:25:38;;;;;;;6.82;3.80;;;;;;;18.45;81.66;94795.25;5004279;28;20733;-72
2022/07/29 00:28:05;;;;;;;7.35;3.53;;;;;;;18.35;80.53;94792.38;4997355;28;20212;-73
2022/07/29 00:30:33;;;;;;;6.15;3.85;;;;;;;18.47;81.58;94781.94;5010564;28;20209;-73
2022/07/29 00:33:00;;;;;;;5.43;3.58;;;;;;;18.37;82.46;94785.34;4997816;28;20232;-73
2022/07/29 00:35:45;;;;;;;5.22;3.47;;;;;;;18.28;83.28;94784.84;5010375;28;20663;-73
2022/07/29 00:38:13;;;;;;;7.63;3.67;;;;;;;18.29;82.65;94791.94;5010978;28;20220;-74
2022/07/29 00:40:40;;;;;;;5.53;3.38;;;;;;;18.28;82.96;94795.81;5010978;28;20271;-74
2022/07/29 00:43:08;;;;;;;5.35;3.50;;;;;;;18.27;82.84;94794.25;5010707;28;20664;-75
2022/07/29 00:45:36;;;;;;;7.43;3.72;;;;;;;18.29;83.00;94786.44;5005733;28;20210;-75
2022/07/29 00:48:04;;;;;;;5.75;3.75;;;;;;;18.33;83.01;94791.94;5003001;28;20213;-74
2022/07/29 00:50:31;;;;;;;6.15;4.00;;;;;;;18.15;83.21;94799.97;5011141;28;20232;-74
2022/07/29 00:52:59;;;;;;;8.70;3.67;;;;;;;18.03;83.70;94794.72;5010616;28;20275;-75
2022/07/29 00:55:26;;;;;;;6.38;3.78;;;;;;;17.93;84.42;94800.81;5010417;28;20649;-74
2022/07/29 00:57:54;;;;;;;7.75;3.80;;;;;;;17.89;84.07;94805.47;4997941;28;20619;-74
2022/07/29 01:00:22;;;;;;;4.95;3.65;;;;;;;18.08;83.12;94802.59;5010122;28;20209;-74
2022/07/29 01:02:51;;;;;;;5.03;3.42;;;;;;;18.21;82.43;94797.66;4997210;28;20209;-74
2022/07/29 01:05:21;;;;;;;5.78;3.80;;;;;;;18.28;82.87;94790.34;4997274;28;20233;-73
2022/07/29 01:07:50;;;;;;;7.75;4.00;;;;;;;18.30;83.04;94787.22;5009763;28;20259;-74
2022/07/29 01:10:17;;;;;;;5.90;3.58;;;;;;;18.33;82.61;94786.47;4998582;28;20263;-75
2022/07/29 01:12:47;;;;;;;4.93;3.03;;;;;;;18.27;82.87;94794.25;4997211;28;20315;-73
2022/07/29 01:15:14;;;;;;;5.25;3.33;;;;;;;18.16;83.52;94790.56;5002792;28;20303;-73
2022/07/29 01:17:45;;;;;;;6.63;3.88;;;;;;;18.06;83.90;94788.47;5004100;28;20240;-74
2022/07/29 01:20:24;;;;;;;6.75;4.40;;;;;;;17.94;85.22;94796.91;4999228;28;20676;-73
2022/07/29 01:23:39;;;;;;;9.55;5.47;;;;;;;18.00;85.70;94784.47;4997176;28;20247;-74
2022/07/29 01:26:28;;;;;;;7.50;4.88;;;;;;;18.06;85.24;94788.47;4985406;28;20275;-73
2022/07/29 01:29:04;;;;;;;8.63;4.60;;;;;;;18.12;85.32;94781.50;5009722;28;20570;-74
2022/07/29 01:31:39;;;;;;;6.43;4.25;;;;;;;18.20;85.33;94777.69;4998728;28;20200;-73
2022/07/29 01:34:09;;;;;;;7.10;4.43;;;;;;;18.28;85.90;94778.59;5007269;28;20204;-74
2022/07/29 01:36:39;;;;;;;7.57;4.38;;;;;;;18.27;85.32;94769.56;4999844;28;20236;-74
2022/07/29 01:39:11;;;;;;;6.72;4.38;;;;;;;18.05;86.61;94770.44;5009590;28;20209;-72
2022/07/29 01:41:46;;;;;;;8.13;5.25;;;;;;;18.08;86.30;94765.00;5013887;28;20193;-72
2022/07/29 01:44:19;;;;;;;9.60;4.97;;;;;;;18.05;87.22;94770.44;5019616;28;20353;-73
2022/07/29 01:46:51;;;;;;;7.68;4.90;;;;;;;18.03;86.74;94765.34;5000314;28;20229;-72
2022/07/29 01:49:22;;;;;;;8.05;5.13;;;;;;;18.08;86.20;94772.44;5013195;28;20335;-73
2022/07/29 01:51:52;;;;;;;7.60;4.65;;;;;;;18.24;85.59;94775.78;4999814;28;20197;-73
2022/07/29 01:54:25;;;;;;;9.95;5.25;;;;;;;18.16;86.08;94771.38;5003462;28;20673;-73
2022/07/29 01:56:56;;;;;;;11.60;5.63;;;;;;;18.06;86.45;94764.56;5006987;28;20194;-73
2022/07/29 01:59:27;;;;;;;11.05;5.15;;;;;;;18.02;86.67;94763.75;5005294;28;20259;-73
2022/07/29 02:01:55;;;;;;;11.10;5.25;;;;;;;17.99;86.92;94760.97;4999899;28;20205;-73
2022/07/29 02:04:24;;;;;;;7.28;5.28;;;;;;;18.02;86.86;94761.03;5000495;28;20229;-73
2022/07/29 02:06:53;;;;;;;8.05;5.10;;;;;;;17.85;88.38;94760.78;5006979;28;20213;-74
2022/07/29 02:09:22;;;;;;;6.97;4.35;;;;;;;17.86;87.92;94756.88;5006952;28;20260;-73
2022/07/29 02:11:55;;;;;;;9.52;5.30;;;;;;;17.92;87.81;94756.16;5006673;28;20205;-72
2022/07/29 02:14:25;;;;;;;9.13;5.20;;;;;;;18.01;86.95;94747.69;5007338;28;20200;-74
2022/07/29 02:16:55;;;;;;;7.30;4.75;;;;;;;17.99;86.71;94744.53;5002582;28;20283;-74
2022/07/29 02:19:24;;;;;;;9.88;5.03;;;;;;;18.14;85.76;94751.78;4999508;28;20217;-74
2022/07/29 02:21:54;;;;;;;8.98;4.65;;;;;;;18.21;85.34;94740.88;5003744;28;20261;-74
2022/07/29 02:24:23;;;;;;;7.65;5.15;;;;;;;18.20;85.61;94750.25;5006841;28;20205;-74
2022/07/29 02:26:52;;;;;;;7.97;4.53;;;;;;;18.11;86.28;94747.81;5003640;28;20614;-74
2022/07/29 02:29:22;;;;;;;8.40;5.43;;;;;;;18.19;86.37;94740.44;4999581;28;20684;-74
2022/07/29 02:31:52;;;;;;;8.57;5.07;;;;;;;18.21;86.43;94738.13;5001841;28;20198;-74
2022/07/29 02:34:20;;;;;;;8.77;5.30;;;;;;;18.09;87.30;94743.84;5006400;28;20256;-75
2022/07/29 02:36:47;;;;;;;9.43;5.53;;;;;;;18.08;87.36;94734.06;5005435;28;20209;-74
2022/07/29 02:39:16;;;;;;;12.77;6.07;;;;;;;18.15;87.34;94733.38;5012641;28;20205;-75
2022/07/29 02:41:46;;;;;;;10.25;5.38;;;;;;;18.14;87.39;94724.34;5013262;28;20205;-74
2022/07/29 02:44:15;;;;;;;6.57;4.90;;;;;;;18.16;86.94;94716.53;4999962;28;20212;-75
2022/07/29 02:46:47;;;;;;;8.82;5.10;;;;;;;18.23;86.74;94722.09;5012207;28;20225;-74
2022/07/29 02:49:19;;;;;;;7.80;5.13;;;;;;;18.17;86.25;94709.13;5001238;28;20208;-74
2022/07/29 02:51:50;;;;;;;7.47;4.80;;;;;;;18.01;86.82;94715.56;5011782;28;20281;-75
2022/07/29 02:54:24;;;;;;;7.60;4.90;;;;;;;17.99;86.71;94711.63;5003496;28;20216;-74
2022/07/29 02:56:55;;;;;;;8.70;4.22;;;;;;;17.98;86.82;94721.81;5006369;28;20198;-75
2022/07/29 02:59:27;;;;;;;6.07;4.50;;;;;;;17.93;87.23;94718.59;5003622;28;20632;-74
2022/07/29 03:01:56;;;;;;;8.77;4.53;;;;;;;17.84;87.70;94709.84;4998857;28;20315;-72
2022/07/29 03:04:28;;;;;;;7.82;4.78;;;;;;;17.83;87.50;94713.75;5012003;28;20568;-74
2022/07/29 03:06:56;;;;;;;10.07;4.47;;;;;;;17.87;87.08;94709.13;4999023;28;20247;-72
2022/07/29 03:09:24;;;;;;;7.53;3.83;;;;;;;17.94;86.34;94715.47;4999242;28;20254;-72
2022/07/29 03:11:51;;;;;;;6.07;4.13;;;;;;;17.98;86.45;94710.84;4998529;28;20201;-72
2022/07/29 03:14:19;;;;;;;6.82;3.95;;;;;;;17.96;86.06;94724.13;5011944;28;20656;-74
2022/07/29 03:16:46;;;;;;;5.93;3.55;;;;;;;17.93;86.12;94724.84;5005375;28;20292;-72
2022/07/29 03:19:14;;;;;;;6.97;3.70;;;;;;;17.94;86.10;94731.13;5006622;28;20560;-73
2022/07/29 03:21:42;;;;;;;5.10;3.35;;;;;;;17.95;86.16;94727.22;5004719;28;20205;-72
2022/07/29 03:24:08;;;;;;;6.30;3.95;;;;;;;17.89;86.78;94726.00;4994149;28;20202;-73
2022/07/29 03:26:35;;;;;;;5.88;3.53;;;;;;;17.90;87.06;94733.84;5004133;28;20260;-73
2022/07/29 03:29:02;;;;;;;4.45;3.42;;;;;;;17.95;87.52;94738.19;5005218;28;20225;-73
2022/07/29 03:31:29;;;;;;;8.63;3.95;;;;;;;18.06;87.07;94744.59;5000498;28;20205;-74
2022/07/29 03:33:57;;;;;;;5.90;4.03;;;;;;;18.12;86.52;94743.13;4998342;28;20579;-74
2022/07/29 03:36:24;;;;;;;10.43;4.15;;;;;;;18.16;86.70;94743.97;5011137;28;20668;-74
2022/07/29 03:38:54;;;;;;;10.63;4.57;;;;;;;18.15;86.50;94747.88;5011661;28;20200;-74
2022/07/29 03:41:23;;;;;;;7.20;4.13;;;;;;;18.07;86.68;94735.22;5009548;28;20233;-74
2022/07/29 03:43:52;;;;;;;5.88;3.75;;;;;;;18.12;86.02;94743.13;5008790;28;20253;-73
2022/07/29 03:46:21;;;;;;;7.85;3.88;;;;;;;18.21;85.87;94740.88;5010818;28;20225;-74
2022/07/29 03:48:51;;;;;;;4.82;3.55;;;;;;;18.30;85.30;94746.88;5011271;28;20209;-74
2022/07/29 03:51:18;;;;;;;6.57;3.70;;;;;;;18.58;84.38;94740.16;5011794;28;20201;-74
2022/07/29 03:53:45;;;;;;;6.25;4.07;;;;;;;18.80;83.50;94739.22;5011951;28;21151;-74
2022/07/29 03:56:17;;;;;;;6.82;3.88;;;;;;;18.96;82.62;94742.53;5000054;28;20206;-74
2022/07/29 03:58:45;;;;;;;8.68;4.00;;;;;;;18.84;82.50;94742.78;5005501;28;20264;-73
2022/07/29 04:01:13;;;;;;;6.10;4.28;;;;;;;18.45;84.21;94754.09;5004341;28;20201;-73
2022/07/29 04:03:40;;;;;;;5.88;3.72;;;;;;;18.48;84.76;94745.13;4997965;28;20213;-72
2022/07/29 04:06:07;;;;;;;5.68;4.07;;;;;;;19.42;82.26;94753.09;5011853;28;20201;-73
2022/07/29 04:08:35;;;;;;;12.52;4.22;;;;;;;19.95;78.45;94747.22;4998869;28;20613;-72
2022/07/29 04:11:03;;;;;;;10.40;4.68;;;;;;;20.49;76.35;94741.63;5011684;28;20212;-73
2022/07/29 04:13:31;;;;;;;7.00;4.90;;;;;;;21.86;72.63;94747.69;4998907;28;20298;-73
2022/07/29 04:15:58;;;;;;;9.23;5.05;;;;;;;23.22;68.15;94734.91;4998281;28;20620;-73
2022/07/29 04:18:25;;;;;;;8.32;6.50;;;;;;;24.00;64.97;94745.31;5004456;28;20202;-73
2022/07/29 04:20:52;;;;;;;8.77;6.15;;;;;;;24.80;61.79;94725.41;5004965;28;20671;-73
2022/07/29 04:23:19;;;;;;;12.07;7.13;;;;;;;25.60;60.28;94723.06;4999215;28;20594;-73
2022/07/29 04:25:46;;;;;;;8.02;5.72;;;;;;;26.19;57.13;94721.22;5011641;28;20721;-73
2022/07/29 04:28:13;;;;;;;9.20;5.93;;;;;;;27.68;53.11;94716.47;5003591;28;20202;-73
2022/07/29 04:30:41;;;;;;;7.75;5.50;;;;;;;28.46;51.28;94720.00;5004546;28;20300;-72
2022/07/29 04:33:08;;;;;;;5.85;4.93;;;;;;;27.03;53.03;94727.50;5000083;28;20575;-72
2022/07/29 04:35:37;;;;;;;6.63;4.75;;;;;;;28.42;50.97;94725.69;4997745;28;20264;-72
2022/07/29 04:38:04;;;;;;;7.65;4.88;;;;;;;29.00;48.03;94725.63;5010738;28;20255;-72
2022/07/29 04:40:32;;;;;;;6.00;3.90;;;;;;;28.68;48.54;94729.34;5011568;28;20205;-73
2022/07/29 04:43:00;;;;;;;5.03;4.30;;;;;;;29.57;47.20;94721.88;5013253;28;20291;-73
2022/07/29 04:45:27;;;;;;;6.93;4.65;;;;;;;29.89;47.17;94723.63;5013177;28;20221;-73
2022/07/29 04:47:55;;;;;;;9.52;5.20;;;;;;;30.89;45.13;94732.09;5011425;28;20618;-73
2022/07/29 04:50:22;;;;;;;7.10;4.18;;;;;;;30.73;43.11;94735.91;5011206;28;20204;-73
2022/07/29 04:52:49;;;;;;;4.65;4.15;;;;;;;30.67;42.98;94728.53;5010702;28;20606;-73
2022/07/29 04:55:16;;;;;;;5.45;4.13;;;;;;;29.46;46.32;94735.41;5011059;28;20213;-72
2022/07/29 04:57:43;;;;;;;5.45;4.07;;;;;;;29.63;45.06;94739.66;5000534;28;20727;-73
2022/07/29 05:00:10;;;;;;;4.57;3.80;;;;;;;29.58;44.90;94754.16;5004454;28;20255;-73
2022/07/29 05:02:37;;;;;;;6.93;4.03;;;;;;;29.87;44.77;94748.44;5001883;28;20201;-73
2022/07/29 05:05:06;;;;;;;5.15;3.90;;;;;;;30.67;42.98;94745.31;4997776;28;20635;-73
2022/07/29 05:07:34;;;;;;;5.30;3.45;;;;;;;31.05;43.02;94745.88;4999076;28;20628;-73
2022/07/29 05:10:00;;;;;;;4.55;4.13;;;;;;;31.66;40.98;94749.19;5004804;28;20212;-73
2022/07/29 05:12:27;;;;;;;5.30;4.13;;;;;;;32.44;39.80;94743.91;5002886;28;20240;-73
2022/07/29 05:14:55;;;;;;;4.20;3.78;;;;;;;31.94;40.68;94738.84;4997774;28;20560;-73
2022/07/29 05:17:21;;;;;;;4.97;3.85;;;;;;;31.47;40.78;94741.91;5003225;28;20283;-72
2022/07/29 05:19:50;;;;;;;4.97;3.72;;;;;;;31.77;40.53;94750.31;5013485;28;20668;-73
2022/07/29 05:22:18;;;;;;;5.18;3.70;;;;;;;31.69;40.13;94748.28;5014887;28;20220;-72
2022/07/29 05:24:45;;;;;;;3.97;3.45;;;;;;;30.81;42.33;94761.59;5014975;28;20209;-72
2022/07/29 05:27:12;;;;;;;5.03;3.75;;;;;;;30.32;42.89;94752.94;5014533;28;20251;-72
2022/07/29 05:29:39;;;;;;;6.55;4.00;;;;;;;29.93;43.87;94762.63;5001424;28;20722;-72
2022/07/29 05:32:06;;;;;;;4.78;4.05;;;;;;;29.28;45.71;94763.81;5014040;28;20607;-72
2022/07/29 05:34:33;;;;;;;4.60;4.10;;;;;;;29.49;45.19;94756.84;5008152;28;20233;-72
2022/07/29 05:37:00;;;;;;;5.05;3.78;;;;;;;29.94;44.55;94747.41;5007507;28;20260;-72
2022/07/29 05:39:28;;;;;;;4.13;3.40;;;;;;;30.79;42.70;94752.09;5013982;28;20563;-72
2022/07/29 05:41:55;;;;;;;6.05;3.47;;;;;;;30.60;43.24;94753.97;5013105;28;20965;-72
2022/07/29 05:44:21;;;;;;;4.43;3.95;;;;;;;30.60;43.20;94748.38;5028847;28;20624;-72
2022/07/29 05:46:48;;;;;;;5.55;3.83;;;;;;;30.53;42.87;94749.38;5005481;28;20249;-72
2022/07/29 05:49:15;;;;;;;4.97;4.20;;;;;;;30.25;44.08;94750.38;5014463;28;20208;-72
2022/07/29 05:51:42;;;;;;;4.57;3.67;;;;;;;30.77;42.06;94748.94;5000924;28;20596;-73
2022/07/29 05:54:09;;;;;;;5.22;3.90;;;;;;;30.83;42.70;94761.91;5005379;28;20233;-72
2022/07/29 05:56:38;;;;;;;6.18;4.30;;;;;;;32.57;40.00;94762.63;5009960;28;20267;-73
2022/07/29 05:59:05;;;;;;;5.63;4.13;;;;;;;32.39;39.02;94761.38;5014054;28;20668;-73
2022/07/29 06:01:32;;;;;;;5.28;4.22;;;;;;;32.13;40.34;94754.44;5011285;28;20217;-71
2022/07/29 06:03:58;;;;;;;7.25;4.80;;;;;;;32.08;40.13;94752.28;5003426;28;20268;-71
2022/07/29 06:06:25;;;;;;;6.68;4.50;;;;;;;32.17;40.47;94755.09;5000340;28;20201;-73
2022/07/29 06:08:52;;;;;;;7.82;4.57;;;;;;;32.22;39.24;94762.13;5003748;28;20688;-72
2022/07/29 06:11:19;;;;;;;4.82;4.32;;;;;;;32.00;39.55;94762.19;5011000;28;20204;-72
2022/07/29 06:13:47;;;;;;;5.70;4.25;;;;;;;31.53;39.70;94763.28;5013784;28;20232;-72
2022/07/29 06:16:14;;;;;;;7.57;4.20;;;;;;;32.12;39.36;94764.09;5009998;28;20718;-73
2022/07/29 06:18:40;;;;;;;6.90;4.15;;;;;;;33.04;37.60;94760.13;5004179;28;20567;-73
2022/07/29 06:21:09;;;;;;;5.18;4.10;;;;;;;32.54;38.10;94766.34;5000258;28;20762;-73
2022/07/29 06:23:37;;;;;;;6.90;4.10;;;;;;;32.49;38.05;94768.56;5002970;28;20296;-73
2022/07/29 06:26:04;;;;;;;6.30;3.97;;;;;;;32.36;38.06;94762.31;5006473;28;20204;-72
2022/07/29 06:28:30;;;;;;;5.20;4.15;;;;;;;33.19;37.35;94761.03;5004461;28;20205;-72
2022/07/29 06:30:59;;;;;;;6.00;4.30;;;;;;;33.60;36.58;94761.56;5000576;28;20205;-73
2022/07/29 06:33:26;;;;;;;4.53;4.13;;;;;;;33.07;37.66;94759.19;5013151;28;20282;-72
2022/07/29 06:35:53;;;;;;;4.80;3.80;;;;;;;33.04;37.66;94760.13;5008587;28;20210;-72
2022/07/29 06:38:20;;;;;;;5.05;3.90;;;;;;;32.92;37.75;94763.91;5005487;28;20672;-73
2022/07/29 06:41:03;;;;;;;4.55;4.10;;;;;;;33.09;38.73;94756.69;5012823;28;20664;-72
2022/07/29 06:43:33;;;;;;;5.72;3.80;;;;;;;32.65;38.54;94753.44;5017964;28;20200;-72
2022/07/29 06:46:05;;;;;;;5.85;4.30;;;;;;;33.12;38.67;94752.16;5005444;28;20260;-72
2022/07/29 06:48:35;;;;;;;7.25;4.85;;;;;;;33.13;37.78;94760.13;5008524;28;20730;-71
2022/07/29 06:51:03;;;;;;;7.25;4.25;;;;;;;32.95;38.45;94756.53;5009717;28;20205;-72
2022/07/29 06:53:31;;;;;;;5.05;4.35;;;;;;;31.90;39.88;94752.22;5005799;28;20250;-74
2022/07/29 06:55:59;;;;;;;5.53;4.10;;;;;;;31.42;41.02;94758.09;5002927;28;20220;-73
2022/07/29 06:58:26;;;;;;;5.78;4.45;;;;;;;31.89;40.36;94750.66;5009279;28;20237;-74
2022/07/29 07:00:53;;;;;;;4.82;4.10;;;;;;;31.10;41.67;94755.75;5003698;28;20201;-73
2022/07/29 07:03:21;;;;;;;7.68;4.55;;;;;;;30.15;43.71;94763.50;4999909;28;20232;-72
2022/07/29 07:05:48;;;;;;;5.05;4.55;;;;;;;29.57;44.59;94762.97;5001185;28;20657;-73
2022/07/29 07:08:15;;;;;;;4.45;4.05;;;;;;;29.85;43.94;94755.69;5004308;28;20620;-70
2022/07/29 07:10:43;;;;;;;9.80;4.43;;;;;;;30.73;43.54;94751.91;4998833;28;20248;-72
2022/07/29 07:13:10;;;;;;;6.50;4.45;;;;;;;30.58;43.05;94750.84;5003504;28;20667;-71
2022/07/29 07:15:37;;;;;;;5.88;4.32;;;;;;;30.67;43.86;94753.72;5007575;28;20232;-71
2022/07/29 07:18:05;;;;;;;5.38;4.25;;;;;;;30.27;43.69;94754.28;5012662;28;20201;-74
2022/07/29 07:20:33;;;;;;;4.93;4.18;;;;;;;30.04;44.23;94752.69;5012180;28;20628;-73
2022/07/29 07:23:00;;;;;;;5.05;4.10;;;;;;;29.23;45.89;94755.25;5012545;28;20749;-72
2022/07/29 07:25:27;;;;;;;5.75;4.45;;;;;;;30.71;43.22;94738.38;5012392;28;20205;-73
2022/07/29 07:27:54;;;;;;;4.38;3.97;;;;;;;31.39;41.74;94744.22;5006903;28;20264;-72
2022/07/29 07:30:21;;;;;;;5.30;3.78;;;;;;;31.70;41.21;94739.41;5004364;28;20259;-71
2022/07/29 07:32:48;;;;;;;3.88;3.33;;;;;;;31.26;41.35;94737.94;4998490;28;20216;-70
2022/07/29 07:35:15;;;;;;;6.22;3.60;;;;;;;30.89;41.80;94743.28;5011318;28;20260;-72
2022/07/29 07:37:43;;;;;;;4.68;3.85;;;;;;;29.93;42.80;94751.44;4999716;28;20248;-73
2022/07/29 07:40:12;;;;;;;3.53;3.22;;;;;;;30.35;42.77;94744.41;5012286;28;20208;-71
2022/07/29 07:42:39;;;;;;;5.45;3.60;;;;;;;30.59;41.71;94746.81;5011414;28;20219;-75
2022/07/29 07:45:08;;;;;;;4.75;3.40;;;;;;;31.73;39.81;94743.28;5017081;28;20217;-71
2022/07/29 07:47:35;;;;;;;4.35;3.50;;;;;;;31.31;41.00;94740.91;4999508;28;20197;-74
2022/07/29 07:50:03;;;;;;;3.63;3.33;;;;;;;32.09;38.81;94743.41;5010789;28;20220;-73
2022/07/29 07:52:29;;;;;;;3.63;3.17;;;;;;;32.04;38.72;94743.22;5011474;28;20201;-73
2022/07/29 07:54:58;;;;;;;4.00;3.20;;;;;;;31.90;38.36;94729.78;5010240;28;20587;-72
2022/07/29 07:57:24;;;;;;;3.42;3.13;;;;;;;30.39;40.75;94747.09;5000571;28;20197;-75
2022/07/29 07:59:51;;;;;;;3.38;3.05;;;;;;;29.62;42.18;94748.47;4997721;28;20197;-75
2022/07/29 08:02:18;;;;;;;3.47;3.13;;;;;;;29.94;42.29;94747.41;5011077;28;20205;-71
2022/07/29 08:04:45;;;;;;;3.45;2.90;;;;;;;30.83;40.63;94735.94;4997833;28;20241;-71
2022/07/29 08:07:14;;;;;;;3.70;3.22;;;;;;;29.87;42.01;94751.22;5003009;28;20232;-72
2022/07/29 08:09:40;;;;;;;4.38;3.33;;;;;;;28.67;44.40;94752.88;4998668;28;20260;-72
2022/07/29 08:12:09;;;;;;;3.55;3.25;;;;;;;29.06;44.23;94748.97;5000751;28;20263;-72
2022/07/29 08:14:36;;;;;;;4.60;2.80;;;;;;;29.64;42.34;94730.03;5010335;28;20228;-70
2022/07/29 08:17:02;;;;;;;5.35;3.60;;;;;;;29.96;42.78;94740.16;5003736;28;20252;-72
2022/07/29 08:19:29;;;;;;;5.30;3.30;;;;;;;29.35;43.73;94751.69;4997735;28;20672;-72
2022/07/29 08:21:56;;;;;;;3.40;3.08;;;;;;;30.12;42.34;94736.44;5011061;28;20197;-73
2022/07/29 08:27:09;;;;;;;3.72;3.03;;;;;;;29.07;43.32;94746.97;4999267;28;20325;-72
2022/07/29 08:29:36;;;;;;;5.05;3.45;;;;;;;29.60;42.87;94734.94;5007732;28;20197;-73
2022/07/29 08:32:04;;;;;;;5.07;3.30;;;;;;;30.02;40.93;94732.78;5006356;28;20197;-74
2022/07/29 08:34:31;;;;;;;3.33;3.00;;;;;;;30.02;41.64;94729.22;5011300;28;20715;-73
2022/07/29 08:36:58;;;;;;;4.20;3.03;;;;;;;30.59;40.22;94732.84;5010788;28;20262;-73
2022/07/29 08:39:25;;;;;;;3.10;2.80;;;;;;;30.08;40.12;94741.34;5011468;28;20205;-73
2022/07/29 08:41:54;;;;;;;5.47;3.17;;;;;;;30.33;40.02;94734.94;5010245;28;20960;-73
2022/07/29 08:44:22;;;;;;;4.00;3.05;;;;;;;30.20;40.39;94723.78;5017411;28;20233;-73
2022/07/29 08:46:50;;;;;;;2.97;2.65;;;;;;;30.54;40.37;94717.41;4998103;28;20213;-73
2022/07/29 08:49:17;;;;;;;4.82;3.13;;;;;;;31.14;39.33;94722.03;5002383;28;20700;-72
2022/07/29 08:51:44;;;;;;;4.72;2.90;;;;;;;30.59;40.45;94735.63;5004479;28;20209;-72
2022/07/29 08:54:14;;;;;;;4.00;3.25;;;;;;;29.79;40.86;94726.78;4999545;28;20271;-71
2022/07/29 08:56:41;;;;;;;2.67;2.42;;;;;;;29.32;40.96;94730.22;5002336;28;20197;-73
2022/07/29 08:59:10;;;;;;;3.15;2.85;;;;;;;30.23;39.76;94720.06;5008040;28;20735;-73
2022/07/29 09:01:40;;;;;;;4.22;3.10;;;;;;;30.68;38.66;94722.50;5010857;28;20271;-71
2022/07/29 09:04:11;;;;;;;3.08;2.80;;;;;;;30.26;39.08;94724.75;5010654;28;20236;-71
2022/07/29 09:06:42;;;;;;;3.72;2.67;;;;;;;29.38;40.78;94717.31;5010568;28;20216;-71
2022/07/29 09:09:09;;;;;;;4.95;3.10;;;;;;;28.58;43.28;94731.19;4999567;28;20715;-71
2022/07/29 09:11:36;;;;;;;6.45;3.08;;;;;;;28.61;42.74;94727.53;5009179;28;20440;-71
2022/07/29 09:14:04;;;;;;;3.75;2.95;;;;;;;28.42;43.44;94725.69;5010651;28;20208;-71
2022/07/29 09:16:48;;;;;;;3.28;2.97;;;;;;;28.46;43.64;94725.56;4997424;28;20212;-71
2022/07/29 09:19:34;;;;;;;4.68;2.90;;;;;;;28.46;42.71;94728.34;4997879;28;20202;-71
2022/07/29 09:22:03;;;;;;;4.22;2.90;;;;;;;28.78;42.46;94724.66;5001788;28;20197;-71
2022/07/29 09:24:41;;;;;;;3.38;3.08;;;;;;;29.25;41.26;94719.28;5003832;28;20252;-72
2022/07/29 09:27:11;;;;;;;3.58;3.10;;;;;;;29.89;40.33;94711.66;5002925;28;20201;-72
2022/07/29 09:29:38;;;;;;;3.13;2.80;;;;;;;30.19;38.60;94708.25;4997557;28;20272;-72
2022/07/29 09:32:10;;;;;;;3.92;2.80;;;;;;;30.23;39.45;94708.13;4998552;28;20284;-72
2022/07/29 09:34:37;;;;;;;4.97;3.53;;;;;;;30.31;40.10;94715.03;4997476;28;20220;-72
2022/07/29 09:37:05;;;;;;;4.88;3.40;;;;;;;30.89;39.97;94709.72;5010200;28;20343;-72
2022/07/29 09:39:33;;;;;;;4.32;3.30;;;;;;;31.43;38.67;94700.06;5010249;28;20198;-72
2022/07/29 09:42:02;;;;;;;5.05;3.50;;;;;;;31.07;38.52;94698.63;5010800;28;20225;-73
2022/07/29 09:44:42;;;;;;;4.63;3.15;;;;;;;30.50;38.49;94704.75;5010417;28;20212;-72
2022/07/29 09:47:10;;;;;;;4.90;2.92;;;;;;;30.39;38.77;94705.94;5005871;28;20198;-74
2022/07/29 09:49:57;;;;;;;3.42;3.13;;;;;;;29.62;40.30;94710.16;5001008;28;20201;-72
2022/07/29 09:52:24;;;;;;;3.90;3.33;;;;;;;29.24;41.52;94706.56;4997497;28;20197;-72
2022/07/29 09:54:53;;;;;;;6.35;3.15;;;;;;;28.80;42.81;94700.72;5010242;28;20275;-73
2022/07/29 09:57:26;;;;;;;3.63;3.15;;;;;;;28.54;43.73;94704.66;5010495;28;20212;-73
2022/07/29 10:00:00;;;;;;;3.45;2.92;;;;;;;28.50;42.80;94704.75;5010020;28;20758;-73
2022/07/29 10:02:33;;;;;;;4.53;3.30;;;;;;;28.34;44.02;94707.59;5012584;28;20208;-74
2022/07/29 10:05:01;;;;;;;6.07;3.40;;;;;;;28.35;43.43;94697.22;5000436;28;20251;-72
2022/07/29 10:07:44;;;;;;;5.40;3.72;;;;;;;28.64;44.38;94692.41;5003338;28;20209;-71
2022/07/29 10:10:11;;;;;;;3.83;3.40;;;;;;;28.82;44.31;94692.69;5000728;28;20238;-73
2022/07/29 10:12:50;;;;;;;4.45;3.75;;;;;;;29.00;43.49;94684.56;5013826;28;20209;-73
2022/07/29 10:15:17;;;;;;;3.72;3.35;;;;;;;29.08;43.86;94676.75;5011275;28;20975;-72
2022/07/29 10:17:45;;;;;;;4.70;4.13;;;;;;;28.96;43.65;94674.75;5010371;28;20197;-72
2022/07/29 10:20:13;;;;;;;4.45;3.72;;;;;;;29.75;41.67;94661.88;5009559;28;20236;-73
2022/07/29 10:22:41;;;;;;;5.28;3.75;;;;;;;30.68;40.74;94660.16;5010482;28;20599;-73
2022/07/29 10:25:09;;;;;;;3.63;3.33;;;;;;;30.45;40.81;94658.59;5013605;28;20255;-72
2022/07/29 10:27:36;;;;;;;5.72;3.35;;;;;;;30.49;40.89;94664.81;5013031;28;20205;-72
2022/07/29 10:30:05;;;;;;;6.20;3.38;;;;;;;30.63;38.68;94652.34;5013738;28;20288;-72
2022/07/29 10:32:57;;;;;;;5.20;3.60;;;;;;;30.35;40.18;94660.53;5000717;28;20284;-74
2022/07/29 10:35:41;;;;;;;5.13;4.03;;;;;;;30.91;39.45;94651.28;5000313;28;20244;-74
2022/07/29 10:38:35;;;;;;;4.32;3.92;;;;;;;30.88;39.70;94646.63;5013750;28;20288;-74
2022/07/29 10:41:28;;;;;;;4.97;4.38;;;;;;;31.51;40.34;94648.13;5000509;28;20197;-73
2022/07/29 10:43:59;;;;;;;4.18;3.78;;;;;;;32.11;38.49;94639.22;5021803;28;20223;-71
2022/07/29 10:46:26;;;;;;;8.75;4.45;;;;;;;32.25;37.93;94635.81;5000904;28;20194;-73
2022/07/29 10:49:07;;;;;;;6.07;4.22;;;;;;;31.90;37.16;94640.13;5003949;28;20260;-74
2022/07/29 10:52:01;;;;;;;3.95;3.60;;;;;;;31.64;37.03;94636.78;5002061;28;20201;-75
2022/07/29 10:54:49;;;;;;;4.05;3.65;;;;;;;31.54;38.17;94641.59;5001857;28;20767;-72
2022/07/29 10:57:20;;;;;;;4.22;3.65;;;;;;;31.42;39.11;94629.28;5003471;28;20205;-72
2022/07/29 10:59:48;;;;;;;4.65;4.00;;;;;;;32.32;37.24;94621.47;5007825;28;20548;-71
2022/07/29 11:02:44;;;;;;;5.28;4.30;;;;;;;32.37;36.75;94634.84;5004450;28;20194;-72
2022/07/29 11:05:12;;;;;;;4.88;4.07;;;;;;;31.72;37.58;94624.81;5006722;28;20225;-71
2022/07/29 11:08:21;;;;;;;4.57;3.80;;;;;;;31.59;37.19;94626.97;5003084;28;20198;-72
2022/07/29 11:10:48;;;;;;;4.03;3.65;;;;;;;31.59;36.97;94621.34;5005830;28;20292;-71
2022/07/29 11:13:51;;;;;;;4.30;3.90;;;;;;;31.76;36.63;94614.25;5008116;28;20660;-70
2022/07/29 11:16:21;;;;;;;4.40;3.78;;;;;;;32.17;35.92;94622.53;5003330;28;20204;-70
2022/07/29 11:19:22;;;;;;;4.65;3.55;;;;;;;32.59;34.63;94606.59;5000454;28;20205;-70
2022/07/29 11:21:51;;;;;;;6.10;4.03;;;;;;;32.29;34.84;94613.97;4996608;28;20225;-71
2022/07/29 11:24:23;;;;;;;4.88;3.75;;;;;;;32.36;34.79;94613.66;5005238;28;20229;-71
2022/07/29 11:27:11;;;;;;;4.97;3.53;;;;;;;32.69;35.20;94608.13;5003691;28;20596;-71
2022/07/29 11:29:41;;;;;;;4.50;3.42;;;;;;;32.51;35.12;94605.38;5002554;28;20224;-72
2022/07/29 11:32:14;;;;;;;4.28;3.60;;;;;;;32.07;35.56;94602.13;5002980;28;20181;-72
2022/07/29 11:34:41;;;;;;;4.13;3.73;;;;;;;32.21;35.81;94597.94;4998151;28;20208;-71
2022/07/29 11:37:22;;;;;;;4.10;3.40;;;;;;;32.63;35.23;94600.84;5004353;28;20189;-72
2022/07/29 11:40:18;;;;;;;4.78;3.80;;;;;;;32.38;34.30;94607.59;5002528;28;20675;-73
2022/07/29 11:42:50;;;;;;;6.32;3.67;;;;;;;32.45;35.18;94601.66;5006435;28;20213;-73
2022/07/29 11:45:23;;;;;;;3.90;3.58;;;;;;;32.13;35.44;94597.44;4999662;28;20903;-73
2022/07/29 11:47:57;;;;;;;4.82;4.22;;;;;;;31.76;35.34;94597.44;5000749;28;20193;-73
2022/07/29 11:50:34;;;;;;;3.92;3.53;;;;;;;31.31;36.40;94600.13;5007571;28;20196;-73